createdAt,value
2022-10-23T00:01:29.426Z,21.90
2022-10-23T00:04:33.947Z,22.10
2022-10-23T00:07:08.890Z,21.90
2022-10-23T00:09:45.247Z,20.00
2022-10-23T00:12:24.379Z,20.20
2022-10-23T00:15:01.665Z,20.10
2022-10-23T00:17:36.801Z,20.20
2022-10-23T00:20:15.928Z,20.70
2022-10-23T00:22:54.060Z,19.00
2022-10-23T00:25:31.429Z,21.00
2022-10-23T00:28:09.641Z,18.40
2022-10-23T00:30:47.846Z,19.10
2022-10-23T00:33:26.366Z,18.30
2022-10-23T00:36:02.458Z,20.50
2022-10-23T00:38:42.476Z,18.40
2022-10-23T00:41:28.037Z,19.80
2022-10-23T00:44:11.183Z,23.10
2022-10-23T00:46:52.464Z,22.20
2022-10-23T00:49:32.488Z,25.20
2022-10-23T00:52:15.949Z,21.20
2022-10-23T00:54:51.085Z,22.30
2022-10-23T00:57:26.477Z,21.30
2022-10-23T01:00:05.703Z,22.40
2022-10-23T01:02:43.209Z,22.50
2022-10-23T01:05:19.925Z,22.10
2022-10-23T01:08:07.352Z,20.50
2022-10-23T01:11:02.766Z,20.60
2022-10-23T01:13:43.941Z,27.60
2022-10-23T01:16:32.392Z,21.30
2022-10-23T01:19:23.708Z,23.20
2022-10-23T01:22:41.906Z,23.00
2022-10-23T01:25:48.429Z,24.00
2022-10-23T01:28:39.233Z,24.10
2022-10-23T01:31:23.588Z,26.80
2022-10-23T01:34:11.319Z,26.30
2022-10-23T01:36:53.528Z,28.60
2022-10-23T01:39:44.941Z,28.40
2022-10-23T01:42:25.346Z,29.80
2022-10-23T01:45:20.714Z,27.20
2022-10-23T01:48:01.029Z,26.00
2022-10-23T01:50:39.257Z,26.30
2022-10-23T01:53:15.960Z,25.00
2022-10-23T01:55:52.655Z,26.50
2022-10-23T01:58:34.835Z,25.00
2022-10-23T02:01:16.003Z,24.60
2022-10-23T02:06:46.663Z,22.20
2022-10-23T02:09:20.875Z,25.40
2022-10-23T02:12:49.775Z,26.60
2022-10-23T02:15:44.264Z,21.00
2022-10-23T02:18:27.684Z,22.90
2022-10-23T02:21:13.277Z,20.60
2022-10-23T02:23:57.326Z,18.40
2022-10-23T02:26:48.633Z,20.20
2022-10-23T02:29:54.295Z,19.20
2022-10-23T02:32:40.021Z,21.80
2022-10-23T02:35:22.394Z,17.00
2022-10-23T02:38:07.493Z,18.70
2022-10-23T02:40:48.682Z,18.50
2022-10-23T02:43:43.830Z,15.60
2022-10-23T02:46:47.725Z,17.30
2022-10-23T02:49:37.768Z,17.60
2022-10-23T02:52:33.355Z,20.10
2022-10-23T02:55:15.878Z,17.90
2022-10-23T02:58:10.358Z,19.40
2022-10-23T03:00:58.406Z,18.10
2022-10-23T03:03:38.641Z,15.00
2022-10-23T03:06:18.132Z,17.80
2022-10-23T03:09:07.519Z,18.30
2022-10-23T03:11:47.504Z,15.00
2022-10-23T03:14:28.185Z,13.80
2022-10-23T03:17:09.152Z,17.60
2022-10-23T03:19:45.522Z,19.00
2022-10-23T03:22:23.121Z,14.90
2022-10-23T03:25:00.401Z,16.40
2022-10-23T03:27:38.923Z,13.40
2022-10-23T03:30:17.441Z,14.60
2022-10-23T03:33:04.867Z,15.30
2022-10-23T03:35:45.548Z,19.20
2022-10-23T03:38:19.050Z,16.90
2022-10-23T03:40:59.078Z,13.00
2022-10-23T03:43:41.692Z,12.80
2022-10-23T03:46:19.631Z,15.60
2022-10-23T03:49:03.026Z,13.10
2022-10-23T03:51:45.229Z,15.20
2022-10-23T03:54:25.648Z,13.70
2022-10-23T03:57:08.100Z,15.60
2022-10-23T04:09:31.217Z,18.40
2022-10-23T04:12:10.673Z,12.70
2022-10-23T04:14:47.642Z,13.40
2022-10-23T04:17:25.733Z,16.50
2022-10-23T04:20:05.232Z,15.30
2022-10-23T04:22:45.665Z,15.80
2022-10-23T04:25:23.850Z,16.00
2022-10-23T04:28:01.758Z,15.20
2022-10-23T04:30:42.818Z,11.70
2022-10-23T04:33:25.100Z,12.70
2022-10-23T04:36:02.533Z,13.80
2022-10-23T04:38:40.119Z,16.30
2022-10-23T04:41:17.718Z,13.90
2022-10-23T04:43:56.857Z,12.60
2022-10-23T04:46:33.217Z,17.80
2022-10-23T04:49:10.506Z,14.60
2022-10-23T04:52:07.916Z,12.50
2022-10-23T04:54:44.417Z,12.00
2022-10-23T04:57:31.582Z,13.60
2022-10-23T05:00:20.203Z,12.20
2022-10-23T05:03:01.173Z,15.30
2022-10-23T05:05:48.600Z,16.40
2022-10-23T05:08:51.078Z,17.50
2022-10-23T05:11:48.330Z,13.30
2022-10-23T05:14:22.898Z,16.60
2022-10-23T05:17:10.282Z,12.00
2022-10-23T05:19:53.711Z,16.80
2022-10-23T05:22:36.227Z,12.80
2022-10-23T05:25:22.107Z,15.40
2022-10-23T05:28:03.388Z,14.50
2022-10-23T05:30:37.605Z,14.40
2022-10-23T05:33:17.658Z,16.40
2022-10-23T05:35:50.644Z,16.20
2022-10-23T05:38:28.551Z,13.30
2022-10-23T05:41:14.349Z,19.90
2022-10-23T05:43:51.739Z,25.60
2022-10-23T05:46:46.528Z,19.30
2022-10-23T05:49:54.833Z,15.80
2022-10-23T05:52:54.240Z,16.30
2022-10-23T05:55:41.360Z,16.20
2022-10-23T05:58:43.223Z,17.30
2022-10-23T06:01:35.652Z,20.70
2022-10-23T06:04:13.791Z,18.00
2022-10-23T06:07:10.411Z,20.30
2022-10-23T06:09:46.470Z,26.30
2022-10-23T06:12:22.228Z,22.10
2022-10-23T06:14:58.905Z,19.50
2022-10-23T06:17:45.999Z,22.90
2022-10-23T06:20:26.661Z,20.80
2022-10-23T06:23:18.746Z,23.80
2022-10-23T06:26:18.560Z,23.40
2022-10-23T06:29:20.912Z,18.70
2022-10-23T06:31:56.042Z,17.50
2022-10-23T06:34:33.341Z,19.90
2022-10-23T06:37:12.368Z,18.40
2022-10-23T06:39:48.861Z,18.10
2022-10-23T06:42:27.661Z,15.10
2022-10-23T06:45:03.413Z,19.50
2022-10-23T06:48:04.663Z,19.50
2022-10-23T06:51:00.375Z,16.80
2022-10-23T06:53:42.523Z,17.10
2022-10-23T06:56:33.924Z,24.50
2022-10-23T06:59:14.177Z,18.60
2022-10-23T07:01:51.478Z,18.40
2022-10-23T07:04:26.189Z,20.40
2022-10-23T07:07:01.759Z,20.10
2022-10-23T07:09:46.888Z,17.70
2022-10-23T07:12:31.022Z,16.80
2022-10-23T07:15:34.925Z,20.80
2022-10-23T07:18:17.143Z,18.00
2022-10-23T07:21:14.654Z,20.30
2022-10-23T07:23:50.460Z,20.30
2022-10-23T07:26:31.861Z,19.70
2022-10-23T07:29:14.454Z,18.00
2022-10-23T07:31:52.546Z,21.90
2022-10-23T07:34:45.114Z,18.60
2022-10-23T07:37:38.175Z,23.60
2022-10-23T07:40:12.281Z,13.90
2022-10-23T07:42:53.891Z,17.80
2022-10-23T07:45:32.439Z,17.30
2022-10-23T07:48:15.197Z,18.70
2022-10-23T07:51:18.963Z,16.60
2022-10-23T07:54:04.848Z,18.80
2022-10-23T07:57:03.898Z,14.80
2022-10-23T08:00:03.968Z,16.50
2022-10-23T08:02:54.442Z,15.50
2022-10-23T08:05:32.009Z,17.10
2022-10-23T08:08:16.059Z,18.90
2022-10-23T08:10:57.331Z,16.80
2022-10-23T08:13:38.925Z,13.50
2022-10-23T08:16:15.927Z,17.60
2022-10-23T08:19:14.188Z,14.60
2022-10-23T08:34:22.183Z,19.20
2022-10-23T08:36:51.769Z,18.50
2022-10-23T08:39:21.575Z,18.40
2022-10-23T08:42:05.055Z,19.00
2022-10-23T08:44:41.697Z,23.70
2022-10-23T08:47:37.759Z,19.70
2022-10-23T08:50:39.564Z,19.90
2022-10-23T08:54:02.502Z,19.50
2022-10-23T08:56:38.764Z,23.20
2022-10-23T08:59:23.273Z,21.30
2022-10-23T09:02:06.903Z,19.30
2022-10-23T09:04:39.051Z,20.30
2022-10-23T09:07:25.069Z,23.60
2022-10-23T09:10:12.881Z,20.70
2022-10-23T09:12:42.611Z,19.00
2022-10-23T09:15:32.949Z,22.80
2022-10-23T09:18:13.129Z,20.00
2022-10-23T09:20:48.448Z,16.70
2022-10-23T09:23:32.266Z,17.30
2022-10-23T09:26:09.919Z,18.50
2022-10-23T09:29:04.085Z,21.10
2022-10-23T09:31:50.949Z,17.30
2022-10-23T09:34:23.779Z,19.50
2022-10-23T09:37:00.398Z,21.20
2022-10-23T09:39:34.889Z,20.40
2022-10-23T09:42:22.766Z,24.00
2022-10-23T09:44:56.113Z,23.10
2022-10-23T09:47:29.744Z,22.80
2022-10-23T09:50:03.080Z,21.80
2022-10-23T09:52:41.848Z,22.20
2022-10-23T09:55:24.629Z,24.60
2022-10-23T09:57:56.464Z,20.60
2022-10-23T10:00:28.598Z,17.90
2022-10-23T10:03:05.351Z,20.10
2022-10-23T10:05:52.266Z,15.10
2022-10-23T10:08:54.451Z,18.20
2022-10-23T10:11:45.576Z,20.10
2022-10-23T10:14:31.380Z,17.60
2022-10-23T10:17:31.163Z,15.90
2022-10-23T10:20:29.105Z,16.40
2022-10-23T10:23:04.496Z,16.30
2022-10-23T10:25:42.604Z,16.10
2022-10-23T10:28:28.418Z,16.40
2022-10-23T10:31:11.980Z,16.80
2022-10-23T10:34:08.621Z,17.00
2022-10-23T10:36:43.465Z,18.20
2022-10-23T10:39:22.053Z,15.20
2022-10-23T10:42:33.154Z,15.60
2022-10-23T10:45:18.520Z,14.00
2022-10-23T10:48:11.287Z,12.70
2022-10-23T10:51:17.500Z,13.70
2022-10-23T10:54:10.003Z,17.40
2022-10-23T10:56:43.630Z,13.20
2022-10-23T10:59:26.350Z,16.70
2022-10-23T11:01:54.994Z,15.20
2022-10-23T11:04:49.303Z,12.90
2022-10-23T11:07:24.578Z,10.90
2022-10-23T11:09:59.738Z,17.00
2022-10-23T11:12:30.351Z,15.90
2022-10-23T11:15:02.148Z,14.20
2022-10-23T11:17:39.279Z,14.60
2022-10-23T11:20:36.318Z,12.40
2022-10-23T11:23:44.419Z,11.30
2022-10-23T11:26:34.260Z,12.20
2022-10-23T11:29:18.464Z,12.90
2022-10-23T11:32:14.366Z,12.10
2022-10-23T11:35:04.144Z,9.90
2022-10-23T11:37:33.903Z,13.20
2022-10-23T11:40:24.442Z,11.50
2022-10-23T11:42:57.267Z,14.40
2022-10-23T11:45:37.404Z,15.70
2022-10-23T11:48:23.175Z,14.70
2022-10-23T11:51:00.213Z,12.50
2022-10-23T11:53:34.395Z,15.40
2022-10-23T11:56:27.547Z,13.40
2022-10-23T11:59:00.479Z,13.80
2022-10-23T12:01:42.913Z,16.80
2022-10-23T12:04:14.638Z,15.40
2022-10-23T12:07:15.122Z,16.10
2022-10-23T12:09:54.769Z,16.90
2022-10-23T12:12:41.452Z,13.70
2022-10-23T12:15:23.168Z,14.10
2022-10-23T12:17:54.704Z,15.40
2022-10-23T12:20:49.105Z,14.10
2022-10-23T12:23:45.823Z,13.30
2022-10-23T12:26:33.584Z,18.50
2022-10-23T12:29:18.045Z,13.10
2022-10-23T12:32:10.452Z,19.80
2022-10-23T12:35:30.436Z,13.40
2022-10-23T12:38:06.060Z,12.80
2022-10-23T12:40:39.759Z,9.10
2022-10-23T12:43:41.158Z,11.40
2022-10-23T12:46:12.967Z,9.80
2022-10-23T12:48:54.678Z,9.50
2022-10-23T12:51:27.651Z,16.30
2022-10-23T12:53:57.880Z,9.60
2022-10-23T12:56:37.977Z,9.60
2022-10-23T12:59:20.399Z,11.10
2022-10-23T13:01:52.892Z,10.00
2022-10-23T13:04:33.892Z,8.10
2022-10-23T13:07:05.153Z,14.20
2022-10-23T13:09:38.958Z,7.80
2022-10-23T13:12:25.733Z,9.70
2022-10-23T13:14:58.851Z,7.50
2022-10-23T13:17:45.811Z,9.80
2022-10-23T13:20:19.038Z,11.00
2022-10-23T13:22:57.688Z,10.20
2022-10-23T13:25:33.841Z,6.80
2022-10-23T13:28:34.656Z,9.50
2022-10-23T13:31:07.666Z,8.50
2022-10-23T13:33:45.958Z,10.80
2022-10-23T13:36:14.784Z,9.10
2022-10-23T13:38:46.831Z,9.00
2022-10-23T13:41:20.276Z,8.10
2022-10-23T13:43:48.896Z,11.40
2022-10-23T13:46:19.977Z,12.50
2022-10-23T13:48:49.441Z,10.50
2022-10-23T13:51:38.837Z,7.80
2022-10-23T13:54:20.150Z,8.20
2022-10-23T13:56:52.852Z,12.10
2022-10-23T13:59:22.598Z,12.00
2022-10-23T14:01:54.068Z,12.50
2022-10-23T14:04:24.006Z,9.40
2022-10-23T14:06:58.855Z,9.30
2022-10-23T14:09:27.919Z,12.20
2022-10-23T14:12:00.222Z,11.20
2022-10-23T14:14:29.786Z,13.10
2022-10-23T14:16:58.692Z,9.70
2022-10-23T14:19:27.548Z,11.00
2022-10-23T14:21:56.404Z,11.70
2022-10-23T14:24:25.156Z,12.70
2022-10-23T14:26:55.075Z,11.90
2022-10-23T14:29:24.625Z,13.50
2022-10-23T14:31:53.663Z,12.90
2022-10-23T14:34:22.322Z,11.10
2022-10-23T14:37:07.338Z,11.50
2022-10-23T14:39:40.234Z,11.30
2022-10-23T14:42:13.436Z,8.70
2022-10-23T14:44:50.260Z,11.30
2022-10-23T14:47:23.324Z,12.10
2022-10-23T14:49:54.806Z,11.80
2022-10-23T14:52:24.530Z,10.30
2022-10-23T14:54:55.178Z,9.50
2022-10-23T14:57:27.916Z,11.20
2022-10-23T14:59:57.725Z,10.20
2022-10-23T15:02:26.225Z,13.70
2022-10-23T15:04:57.010Z,14.50
2022-10-23T15:07:26.758Z,10.70
2022-10-23T15:09:56.227Z,10.50
2022-10-23T15:12:25.126Z,9.00
2022-10-23T15:14:54.462Z,11.40
2022-10-23T15:17:24.423Z,9.70
2022-10-23T15:19:57.546Z,11.50
2022-10-23T15:22:27.176Z,11.40
2022-10-23T15:24:57.145Z,10.60
2022-10-23T15:27:25.720Z,14.90
2022-10-23T15:29:54.902Z,10.30
2022-10-23T15:32:23.946Z,8.90
2022-10-23T15:34:55.044Z,15.60
2022-10-23T15:37:24.849Z,9.00
2022-10-23T15:39:58.363Z,12.60
2022-10-23T15:42:30.059Z,13.20
2022-10-23T15:44:58.859Z,20.00
2022-10-23T15:47:27.835Z,19.90
2022-10-23T15:49:56.663Z,13.30
2022-10-23T15:52:25.265Z,12.00
2022-10-23T15:54:53.934Z,17.50
2022-10-23T15:57:22.022Z,25.00
2022-10-23T15:59:51.165Z,91.10
2022-10-23T16:02:20.081Z,98.60
2022-10-23T16:04:49.217Z,78.90
2022-10-23T16:07:18.839Z,77.20
2022-10-23T16:09:47.497Z,82.50
2022-10-23T16:12:16.369Z,79.30
2022-10-23T16:14:46.026Z,79.10
2022-10-23T16:19:43.982Z,85.90
2022-10-23T16:22:14.204Z,91.60
2022-10-23T16:24:43.356Z,76.50
2022-10-23T16:27:12.371Z,50.70
2022-10-23T16:29:40.690Z,46.50
2022-10-23T16:32:09.106Z,59.20
2022-10-23T16:34:38.182Z,88.00
2022-10-23T16:37:08.300Z,84.30
2022-10-23T16:39:50.323Z,76.70
2022-10-23T16:42:39.909Z,85.10
2022-10-23T16:45:15.366Z,103.50
2022-10-23T16:47:45.487Z,103.90
2022-10-23T16:50:16.269Z,123.70
2022-10-23T16:52:45.627Z,108.50
2022-10-23T16:55:18.005Z,63.10
2022-10-23T16:57:46.918Z,48.20
2022-10-23T17:00:17.480Z,106.30
2022-10-23T17:02:46.570Z,94.50
2022-10-23T17:05:22.362Z,120.40
2022-10-23T17:07:50.756Z,141.30
2022-10-23T17:19:56.726Z,44.90
2022-10-23T17:22:25.590Z,49.80
2022-10-23T17:24:54.584Z,61.10
2022-10-23T17:27:23.527Z,54.10
2022-10-23T17:29:57.422Z,46.80
2022-10-23T17:32:26.820Z,89.80
2022-10-23T17:34:55.745Z,87.80
2022-10-23T17:37:26.684Z,111.10
2022-10-23T17:40:00.970Z,86.50
2022-10-23T17:42:31.337Z,70.60
2022-10-23T17:45:03.367Z,70.70
2022-10-23T17:47:34.350Z,70.60
2022-10-23T17:50:04.270Z,72.00
2022-10-23T17:52:36.218Z,74.40
2022-10-23T17:55:11.392Z,90.40
2022-10-23T17:57:41.906Z,92.70
2022-10-23T18:00:12.906Z,76.70
2022-10-23T18:02:43.842Z,72.50
2022-10-23T18:05:14.840Z,78.10
2022-10-23T18:07:49.240Z,77.50
2022-10-23T18:10:19.196Z,72.70
2022-10-23T18:12:48.180Z,80.30
2022-10-23T18:15:17.336Z,88.50
2022-10-23T18:17:46.387Z,83.30
2022-10-23T18:20:16.461Z,78.30
2022-10-23T18:22:45.932Z,81.30
2022-10-23T18:25:15.472Z,83.70
2022-10-23T18:27:47.726Z,80.70
2022-10-23T18:30:17.176Z,76.50
2022-10-23T18:32:47.542Z,84.40
2022-10-23T18:35:16.289Z,87.10
2022-10-23T18:37:49.887Z,85.30
2022-10-23T18:40:24.286Z,73.10
2022-10-23T18:42:57.735Z,77.00
2022-10-23T18:45:27.139Z,68.90
2022-10-23T18:47:56.919Z,75.20
2022-10-23T18:50:28.732Z,74.70
2022-10-23T18:52:57.572Z,76.70
2022-10-23T18:55:25.987Z,80.10
2022-10-23T18:57:55.231Z,72.40
2022-10-23T19:00:27.435Z,73.40
2022-10-23T19:02:59.139Z,68.60
2022-10-23T19:05:29.154Z,69.10
2022-10-23T19:08:03.419Z,69.90
2022-10-23T19:10:35.670Z,72.30
2022-10-23T19:13:05.629Z,73.70
2022-10-23T19:15:37.327Z,67.50
2022-10-23T19:18:07.835Z,68.30
2022-10-23T19:20:38.101Z,73.40
2022-10-23T19:23:07.380Z,70.80
2022-10-23T19:25:38.367Z,65.30
2022-10-23T19:28:07.252Z,67.70
2022-10-23T19:30:36.678Z,66.70
2022-10-23T19:33:06.422Z,71.60
2022-10-23T19:35:34.543Z,64.10
2022-10-23T19:48:47.023Z,63.80
2022-10-23T19:51:59.856Z,69.00
2022-10-23T19:54:28.107Z,68.30
2022-10-23T19:56:57.086Z,70.50
2022-10-23T19:59:30.560Z,72.10
2022-10-23T20:01:58.681Z,67.80
2022-10-23T20:04:26.753Z,61.50
2022-10-23T20:06:56.008Z,60.70
2022-10-23T20:09:25.703Z,57.50
2022-10-23T20:11:55.416Z,55.70
2022-10-23T20:14:23.441Z,56.40
2022-10-23T20:16:55.686Z,54.10
2022-10-23T20:19:24.387Z,61.10
2022-10-23T20:21:57.858Z,55.80
2022-10-23T20:24:25.812Z,55.00
2022-10-23T20:26:55.160Z,50.20
2022-10-23T20:29:24.084Z,53.90
2022-10-23T20:31:52.665Z,47.70
2022-10-23T20:34:22.197Z,45.80
2022-10-23T20:36:49.707Z,45.30
2022-10-23T20:39:21.027Z,45.90
2022-10-23T20:41:48.159Z,41.50
2022-10-23T20:44:18.476Z,39.30
2022-10-23T20:46:46.290Z,42.60
2022-10-23T20:49:15.679Z,46.00
2022-10-23T20:51:43.395Z,37.80
2022-10-23T20:54:10.731Z,41.20
2022-10-23T20:56:39.438Z,41.50
2022-10-23T20:59:11.459Z,43.90
2022-10-23T21:01:41.770Z,40.60
2022-10-23T21:04:13.141Z,45.20
2022-10-23T21:06:57.821Z,42.20
2022-10-23T21:09:30.083Z,43.30
2022-10-23T21:11:57.735Z,39.50
2022-10-23T21:14:26.176Z,40.90
2022-10-23T21:16:53.022Z,41.50
2022-10-23T21:19:19.887Z,36.30
2022-10-23T21:21:48.907Z,37.20
2022-10-23T21:24:17.147Z,36.00
2022-10-23T21:26:44.703Z,37.00
2022-10-23T21:29:20.858Z,35.30
2022-10-23T21:31:56.768Z,36.30
2022-10-23T21:34:25.058Z,41.10
2022-10-23T21:37:12.030Z,38.40
2022-10-23T21:39:44.352Z,35.70
2022-10-23T21:42:13.413Z,38.40
2022-10-23T21:44:40.498Z,39.20
2022-10-23T21:47:07.149Z,36.10
2022-10-23T21:49:34.184Z,35.00
2022-10-23T21:52:06.094Z,40.00
2022-10-23T21:54:32.890Z,35.10
2022-10-23T21:57:03.561Z,34.60
2022-10-23T21:59:33.229Z,35.10
2022-10-23T22:02:02.245Z,37.40
2022-10-23T22:04:29.063Z,36.20
2022-10-23T22:06:55.706Z,34.90
2022-10-23T22:09:22.338Z,37.00
2022-10-23T22:11:50.882Z,39.50
2022-10-23T22:14:18.967Z,44.90
2022-10-23T22:16:45.991Z,39.50
2022-10-23T22:19:16.346Z,35.80
2022-10-23T22:21:43.575Z,39.20
2022-10-23T22:24:10.673Z,39.00
2022-10-23T22:26:41.293Z,41.30
2022-10-23T22:29:11.201Z,39.70
2022-10-23T22:31:38.484Z,42.30
2022-10-23T22:34:18.708Z,42.60
2022-10-23T22:36:55.330Z,36.40
2022-10-23T22:39:22.684Z,37.90
2022-10-23T22:41:49.775Z,40.10
2022-10-23T22:44:16.395Z,34.40
2022-10-23T22:46:43.960Z,36.30
2022-10-23T22:49:10.950Z,38.80
2022-10-23T22:51:39.064Z,43.20
2022-10-23T22:54:06.325Z,38.20
2022-10-23T22:56:34.713Z,38.70
2022-10-23T22:59:01.894Z,45.30
2022-10-23T23:01:30.152Z,46.40
2022-10-23T23:04:04.277Z,47.60
2022-10-23T23:06:44.906Z,52.50
2022-10-23T23:09:17.026Z,50.00
2022-10-23T23:11:51.719Z,51.40
2022-10-23T23:14:23.180Z,50.80
2022-10-23T23:16:52.367Z,47.80
2022-10-23T23:19:22.368Z,42.60
2022-10-23T23:21:49.315Z,49.80
2022-10-23T23:24:15.760Z,48.60
2022-10-23T23:26:42.374Z,41.10
2022-10-23T23:29:09.207Z,37.20
2022-10-23T23:31:35.673Z,34.20
2022-10-23T23:34:02.367Z,31.30
2022-10-23T23:36:29.224Z,33.70
2022-10-23T23:38:57.335Z,37.50
2022-10-23T23:41:26.878Z,35.20
2022-10-23T23:43:55.935Z,33.20
2022-10-23T23:46:24.098Z,32.80
2022-10-23T23:48:50.475Z,30.60
2022-10-23T23:51:19.973Z,36.40
2022-10-23T23:53:47.772Z,30.40
2022-10-23T23:56:14.609Z,27.60
2022-10-23T23:58:41.266Z,35.50
